Time;durP1;ratioP1;P1;durP2;ratioP2;P2;SDS_P1;SDS_P2;PMS_P1;PMS_P2;Temp;Humidity;BMP_temperature;BMP_pressure;BME280_temperature;BME280_humidity;BME280_pressure;Samples;Min_cycle;Max_cycle;Signal;HPM_P1;HPM_P2
2024/03/15 00:00:14;;;;;;;0.10;0.10;;;;;;;12.68;78.46;98711.91;7363259;19;20006;-63
2024/03/15 00:02:39;;;;;;;0.10;0.10;;;;;;;12.68;78.14;98709.28;7359076;19;20007;-63
2024/03/15 00:05:05;;;;;;;0.10;0.10;;;;;;;12.68;78.31;98706.66;7364816;19;20002;-63
2024/03/15 00:07:30;;;;;;;0.00;0.00;;;;;;;12.67;77.86;98708.44;7360051;19;20002;-62
2024/03/15 00:09:57;;;;;;;0.20;0.20;;;;;;;12.65;78.68;98712.91;7370115;19;20002;-62
2024/03/15 00:12:23;;;;;;;0.10;0.10;;;;;;;12.63;78.74;98708.72;7369944;19;20025;-62
2024/03/15 00:14:48;;;;;;;0.10;0.10;;;;;;;12.61;78.79;98721.91;7362742;19;20348;-62
2024/03/15 00:17:14;;;;;;;0.10;0.10;;;;;;;12.59;78.27;98736.88;7370284;19;20041;-62
2024/03/15 00:19:40;;;;;;;0.10;0.10;;;;;;;12.52;78.63;98711.16;7371289;19;20918;-62
2024/03/15 00:22:06;;;;;;;0.10;0.10;;;;;;;12.55;78.72;98730.13;7370105;19;20007;-62
2024/03/15 00:24:32;;;;;;;0.10;0.10;;;;;;;12.54;78.39;98731.09;7369624;19;20006;-62
2024/03/15 00:26:59;;;;;;;0.10;0.10;;;;;;;12.51;79.14;98718.16;7365569;19;20466;-62
2024/03/15 00:29:27;;;;;;;0.10;0.10;;;;;;;12.48;78.88;98768.13;7366148;19;20410;-62
2024/03/15 00:31:52;;;;;;;0.10;0.10;;;;;;;12.48;79.01;98734.09;7368598;19;20426;-62
2024/03/15 00:34:17;;;;;;;0.10;0.10;;;;;;;12.48;78.92;98736.72;7363469;19;20002;-61
2024/03/15 00:36:44;;;;;;;0.10;0.10;;;;;;;12.44;79.16;98729.97;7364453;19;20006;-62
2024/03/15 00:39:11;;;;;;;0.10;0.10;;;;;;;12.38;79.14;98717.28;7368776;19;20017;-62
2024/03/15 00:41:36;;;;;;;0.10;0.10;;;;;;;12.28;79.53;98705.69;7366325;19;20381;-62
2024/03/15 00:44:02;;;;;;;0.10;0.10;;;;;;;12.40;79.49;98728.47;7365887;19;19998;-60
2024/03/15 00:46:27;;;;;;;0.10;0.10;;;;;;;12.40;79.23;98738.94;7368280;19;20525;-62
2024/03/15 00:48:53;;;;;;;0.10;0.10;;;;;;;12.39;79.51;98745.13;7370328;19;20029;-62
2024/03/15 00:51:19;;;;;;;0.15;0.15;;;;;;;12.26;79.81;98718.00;7362827;19;20002;-62
2024/03/15 00:53:44;;;;;;;0.10;0.10;;;;;;;12.37;79.61;98728.69;7368485;19;20006;-62
2024/03/15 00:56:10;;;;;;;0.10;0.10;;;;;;;12.22;79.69;98706.91;7366479;19;20380;-62
2024/03/15 00:58:36;;;;;;;0.15;0.15;;;;;;;12.37;79.62;98740.00;7366364;19;19999;-63
2024/03/15 01:01:03;;;;;;;0.10;0.10;;;;;;;12.39;79.50;98742.50;7369701;19;20006;-62
2024/03/15 01:03:29;;;;;;;0.10;0.10;;;;;;;12.41;79.76;98748.47;7368308;19;20243;-62
2024/03/15 01:05:58;;;;;;;0.10;0.10;;;;;;;12.40;79.80;98737.16;7370338;19;20749;-62
2024/03/15 01:08:24;;;;;;;0.10;0.10;;;;;;;12.33;79.54;98727.19;7361361;19;20002;-63
2024/03/15 01:10:50;;;;;;;0.10;0.10;;;;;;;12.44;79.35;98753.53;7365358;19;20566;-62
2024/03/15 01:13:17;;;;;;;0.10;0.10;;;;;;;12.46;79.18;98743.78;7363507;19;20007;-62
2024/03/15 01:15:43;;;;;;;0.10;0.10;;;;;;;12.47;79.63;98748.13;7368787;19;20704;-63
2024/03/15 01:18:10;;;;;;;0.10;0.10;;;;;;;12.35;79.08;98725.28;7365928;19;20011;-63
2024/03/15 01:20:35;;;;;;;0.10;0.10;;;;;;;12.49;79.37;98748.84;7369134;19;20013;-63
2024/03/15 01:23:02;;;;;;;0.10;0.10;;;;;;;12.52;79.13;98748.69;7364241;19;20363;-63
2024/03/15 01:25:27;;;;;;;0.10;0.10;;;;;;;12.35;79.17;98714.81;7369320;19;20003;-62
2024/03/15 01:27:53;;;;;;;0.15;0.15;;;;;;;12.52;79.20;98753.91;7361625;19;20013;-63
2024/03/15 01:30:19;;;;;;;0.10;0.10;;;;;;;12.52;79.78;98753.03;7367981;19;20003;-63
2024/03/15 01:32:45;;;;;;;0.10;0.10;;;;;;;12.52;79.29;98748.69;7365304;19;20018;-63
2024/03/15 01:35:10;;;;;;;0.10;0.10;;;;;;;12.53;79.52;98763.44;7366764;19;20884;-64
2024/03/15 01:37:36;;;;;;;0.10;0.10;;;;;;;12.54;79.33;98756.44;7361522;19;20007;-63
2024/03/15 01:40:03;;;;;;;0.10;0.10;;;;;;;12.52;79.26;98759.16;7365478;19;19994;-63
2024/03/15 01:42:28;;;;;;;0.10;0.10;;;;;;;12.55;79.56;98772.03;7366696;19;21007;-62
2024/03/15 01:44:55;;;;;;;0.10;0.10;;;;;;;12.56;79.54;98768.47;7364711;19;20013;-63
2024/03/15 01:47:27;;;;;;;0.10;0.10;;;;;;;12.59;79.37;98768.28;7366745;19;20648;-63
2024/03/15 01:49:54;;;;;;;0.10;0.10;;;;;;;12.57;79.08;98772.78;7363005;19;19998;-63
2024/03/15 01:52:20;;;;;;;0.13;0.13;;;;;;;12.59;79.13;98785.78;7364402;19;20386;-63
2024/03/15 01:54:46;;;;;;;0.13;0.13;;;;;;;12.59;79.44;98780.56;7365379;19;20073;-63
2024/03/15 01:57:13;;;;;;;0.10;0.10;;;;;;;12.59;79.61;98786.63;7365324;19;20003;-63
2024/03/15 01:59:38;;;;;;;0.10;0.10;;;;;;;12.59;79.07;98785.78;7367008;19;20789;-64
2024/03/15 02:02:05;;;;;;;0.10;0.10;;;;;;;12.60;79.19;98777.00;7363545;19;20029;-63
2024/03/15 02:04:30;;;;;;;0.20;0.20;;;;;;;12.48;79.10;98762.03;7363526;19;20010;-63
2024/03/15 02:06:59;;;;;;;0.10;0.10;;;;;;;12.60;79.22;98783.06;7366171;19;20474;-64
2024/03/15 02:09:28;;;;;;;0.10;0.10;;;;;;;12.60;79.14;98788.28;7364616;19;20094;-64
2024/03/15 02:11:53;;;;;;;0.10;0.10;;;;;;;12.58;79.24;98784.94;7363262;19;20014;-63
2024/03/15 02:14:19;;;;;;;0.10;0.10;;;;;;;12.59;79.32;98794.47;7360336;19;20009;-63
2024/03/15 02:16:46;;;;;;;0.10;0.10;;;;;;;12.58;79.01;98790.19;7367188;19;20009;-63
2024/03/15 02:19:11;;;;;;;0.17;0.17;;;;;;;12.56;78.97;98786.78;7367438;19;20015;-64
2024/03/15 02:21:37;;;;;;;0.10;0.10;;;;;;;12.37;78.99;98762.72;7360984;19;20769;-63
2024/03/15 02:24:02;;;;;;;0.10;0.10;;;;;;;12.55;78.94;98792.13;7365881;19;20009;-63
2024/03/15 02:26:28;;;;;;;0.10;0.10;;;;;;;12.51;79.34;98791.47;7363715;19;21164;-63
2024/03/15 02:28:53;;;;;;;0.10;0.10;;;;;;;12.53;79.29;98813.19;7362195;19;20017;-64
2024/03/15 02:31:21;;;;;;;0.10;0.10;;;;;;;12.40;79.09;98786.06;7361586;19;20880;-63
2024/03/15 02:33:47;;;;;;;0.20;0.20;;;;;;;12.50;78.98;98808.13;7364491;19;20053;-63
2024/03/15 02:36:15;;;;;;;0.10;0.10;;;;;;;12.50;78.93;98802.88;7363752;19;20746;-63
2024/03/15 02:38:41;;;;;;;;;;;;;;;12.53;78.50;98807.94;7362393;19;20010;-64
2024/03/15 02:41:09;;;;;;;0.10;0.10;;;;;;;12.50;78.61;98807.28;7367620;19;19927;-63
2024/03/15 02:43:35;;;;;;;0.10;0.10;;;;;;;12.45;78.53;98802.31;7364088;19;20009;-63
2024/03/15 02:46:00;;;;;;;0.10;0.10;;;;;;;12.46;78.95;98807.47;7360923;19;19998;-63
2024/03/15 02:48:25;;;;;;;0.10;0.10;;;;;;;12.44;78.47;98808.50;7363398;19;20478;-63
2024/03/15 02:50:51;;;;;;;0.10;0.10;;;;;;;12.41;78.61;98813.91;7367567;19;20082;-64
2024/03/15 02:53:18;;;;;;;0.10;0.10;;;;;;;12.39;78.50;98805.31;7362528;19;19990;-63
2024/03/15 02:55:44;;;;;;;;;;;;;;;12.39;78.35;98807.94;7368652;19;20021;-63
2024/03/15 02:58:11;;;;;;;0.10;0.10;;;;;;;12.34;78.61;98812.59;7358053;19;19990;-63
2024/03/15 03:00:37;;;;;;;0.10;0.10;;;;;;;12.32;78.35;98819.72;7364185;19;20066;-63
2024/03/15 03:03:03;;;;;;;0.10;0.10;;;;;;;12.28;78.98;98820.84;7364462;19;20419;-64
2024/03/15 03:05:30;;;;;;;0.10;0.10;;;;;;;12.26;79.12;98817.44;7367211;19;20026;-63
2024/03/15 03:07:56;;;;;;;0.10;0.10;;;;;;;12.24;79.13;98817.56;7364098;19;20012;-63
2024/03/15 03:10:22;;;;;;;0.20;0.20;;;;;;;12.23;79.32;98820.28;7364427;19;20014;-63
2024/03/15 03:12:47;;;;;;;0.20;0.20;;;;;;;12.22;78.97;98826.44;7359418;19;20070;-63
2024/03/15 03:15:14;;;;;;;0.10;0.10;;;;;;;12.10;79.13;98805.28;7363025;19;20093;-64
2024/03/15 03:17:39;;;;;;;0.20;0.20;;;;;;;12.22;78.76;98839.53;7365204;19;20025;-63
2024/03/15 03:20:11;;;;;;;0.10;0.10;;;;;;;12.22;79.14;98813.34;7361992;19;21429;-63
2024/03/15 03:22:37;;;;;;;0.17;0.17;;;;;;;12.20;79.20;98824.72;7365813;19;20003;-62
2024/03/15 03:25:02;;;;;;;0.10;0.10;;;;;;;12.18;79.02;98826.59;7364884;19;20920;-63
2024/03/15 03:27:28;;;;;;;0.10;0.10;;;;;;;12.16;78.52;98815.38;7364087;19;20063;-63
2024/03/15 03:29:53;;;;;;;0.10;0.10;;;;;;;11.99;78.37;98812.91;7360830;19;20002;-63
2024/03/15 03:32:19;;;;;;;0.10;0.10;;;;;;;12.15;78.56;98837.25;7364278;19;20019;-63
2024/03/15 03:34:44;;;;;;;0.10;0.10;;;;;;;12.11;77.93;98837.50;7365738;19;19998;-62
2024/03/15 03:37:09;;;;;;;0.10;0.10;;;;;;;12.09;78.20;98829.75;7365357;19;20074;-63
2024/03/15 03:39:35;;;;;;;0.10;0.10;;;;;;;12.06;77.83;98856.09;7359036;19;20003;-63
2024/03/15 03:42:04;;;;;;;0.10;0.10;;;;;;;11.90;78.13;98839.59;7361474;19;20007;-62
2024/03/15 03:44:31;;;;;;;0.10;0.10;;;;;;;11.96;77.73;98844.47;7362802;19;20430;-63
2024/03/15 03:46:56;;;;;;;0.10;0.10;;;;;;;11.92;77.92;98848.22;7359536;19;20019;-63
2024/03/15 03:49:21;;;;;;;0.20;0.20;;;;;;;11.88;77.77;98862.41;7364259;19;20066;-62
2024/03/15 03:51:47;;;;;;;0.10;0.10;;;;;;;11.83;78.03;98861.81;7364503;19;19990;-62
2024/03/15 03:54:14;;;;;;;0.10;0.10;;;;;;;11.80;77.65;98867.19;7366301;19;20002;-61
2024/03/15 03:56:40;;;;;;;0.10;0.10;;;;;;;11.73;77.80;98873.72;7366491;19;20876;-62
2024/03/15 03:59:05;;;;;;;0.10;0.10;;;;;;;11.69;77.90;98859.97;7360056;19;19994;-62
2024/03/15 04:01:33;;;;;;;0.10;0.10;;;;;;;11.66;77.77;98863.59;7365788;19;20557;-62
2024/03/15 04:03:59;;;;;;;0.10;0.10;;;;;;;11.62;78.14;98863.84;7362751;19;20006;-62
2024/03/15 04:06:24;;;;;;;0.10;0.10;;;;;;;11.60;77.99;98879.59;7364234;19;20117;-62
2024/03/15 04:08:49;;;;;;;0.10;0.10;;;;;;;11.57;77.95;98885.03;7360121;19;20018;-62
2024/03/15 04:11:15;;;;;;;0.10;0.10;;;;;;;11.54;78.25;98884.34;7362248;19;20013;-62
2024/03/15 04:13:40;;;;;;;0.00;0.00;;;;;;;11.52;78.31;98884.44;7357921;19;20048;-62
2024/03/15 04:16:06;;;;;;;0.10;0.10;;;;;;;11.50;78.10;98888.88;7334516;19;21005;-63
2024/03/15 04:18:34;;;;;;;0.10;0.10;;;;;;;11.47;78.51;98878.63;7357716;19;20764;-62
2024/03/15 04:21:00;;;;;;;0.10;0.10;;;;;;;11.43;78.39;98882.34;7363293;19;20015;-62
2024/03/15 04:23:26;;;;;;;0.10;0.10;;;;;;;11.43;78.77;98895.41;7364093;19;20007;-61
2024/03/15 04:25:52;;;;;;;0.10;0.10;;;;;;;11.42;78.40;98897.16;7362968;19;20694;-62
2024/03/15 04:28:21;;;;;;;0.10;0.10;;;;;;;11.41;78.98;98899.88;7362568;19;20094;-62
2024/03/15 04:30:47;;;;;;;0.10;0.10;;;;;;;11.41;79.10;98899.88;7362674;19;21006;-62
2024/03/15 04:33:12;;;;;;;0.10;0.10;;;;;;;11.41;79.12;98902.50;7364003;19;20133;-62
2024/03/15 04:35:40;;;;;;;0.10;0.10;;;;;;;11.29;78.84;98884.84;7359597;19;20013;-62
2024/03/15 04:38:05;;;;;;;0.10;0.10;;;;;;;11.39;79.19;98897.31;7366111;19;20688;-62
2024/03/15 04:40:31;;;;;;;0.10;0.10;;;;;;;11.40;78.98;98895.56;7360776;19;20078;-62
2024/03/15 04:42:59;;;;;;;0.10;0.10;;;;;;;11.44;79.28;98910.16;7357980;19;20010;-61
2024/03/15 04:45:25;;;;;;;0.10;0.10;;;;;;;11.43;79.20;98908.47;7362353;19;20006;-62
2024/03/15 04:47:50;;;;;;;0.10;0.10;;;;;;;11.43;78.97;98908.47;7362209;19;20006;-62
2024/03/15 04:50:15;;;;;;;0.17;0.17;;;;;;;11.46;79.50;98917.94;7363823;19;20007;-61
2024/03/15 04:52:42;;;;;;;0.10;0.10;;;;;;;11.44;78.96;98925.81;7361492;19;20009;-62
2024/03/15 04:55:11;;;;;;;0.10;0.10;;;;;;;11.44;79.29;98918.00;7371391;19;20047;-62
2024/03/15 04:57:38;;;;;;;0.00;0.00;;;;;;;11.45;79.31;98922.28;7366204;19;20010;-62
2024/03/15 05:00:09;;;;;;;0.10;0.10;;;;;;;11.49;79.03;98928.19;7369361;19;20003;-61
2024/03/15 05:02:35;;;;;;;0.10;0.10;;;;;;;11.46;79.35;98938.84;7371607;19;20025;-61
2024/03/15 05:05:01;;;;;;;0.10;0.10;;;;;;;11.47;79.01;98941.34;7371398;19;20003;-62
2024/03/15 05:07:26;;;;;;;0.10;0.10;;;;;;;11.47;78.99;98932.66;7366576;19;20014;-62
2024/03/15 05:09:51;;;;;;;0.10;0.10;;;;;;;11.46;79.10;98928.38;7370741;19;20487;-62
2024/03/15 05:12:17;;;;;;;0.10;0.10;;;;;;;11.47;78.99;98945.75;7363531;19;20013;-62
2024/03/15 05:14:42;;;;;;;0.10;0.10;;;;;;;11.47;79.08;98941.34;7369820;19;20375;-61
2024/03/15 05:17:08;;;;;;;0.10;0.10;;;;;;;11.45;79.01;98945.81;7367473;19;19995;-61
2024/03/15 05:19:33;;;;;;;0.10;0.10;;;;;;;11.44;79.01;98925.81;7370849;19;20003;-62
2024/03/15 05:21:58;;;;;;;0.10;0.10;;;;;;;11.44;78.72;98949.34;7366854;19;20010;-62
2024/03/15 05:24:25;;;;;;;0.10;0.10;;;;;;;11.33;79.09;98933.41;7369308;19;20005;-62
2024/03/15 05:26:50;;;;;;;0.10;0.10;;;;;;;11.43;78.96;98947.66;7366072;19;20347;-62
2024/03/15 05:29:15;;;;;;;0.10;0.10;;;;;;;11.41;78.93;98952.16;7366629;19;20010;-61
2024/03/15 05:31:41;;;;;;;0.10;0.10;;;;;;;11.41;78.92;98981.75;7368486;19;19999;-61
2024/03/15 05:34:07;;;;;;;0.20;0.20;;;;;;;11.38;78.97;98960.16;7366566;19;20008;-62
2024/03/15 05:36:34;;;;;;;0.10;0.10;;;;;;;11.39;78.79;98972.28;7369489;19;19998;-61
2024/03/15 05:39:00;;;;;;;0.10;0.10;;;;;;;11.38;78.72;98963.59;7368367;19;19999;-61
2024/03/15 05:41:25;;;;;;;0.10;0.10;;;;;;;11.38;78.58;98975.81;7370441;19;20075;-61
2024/03/15 05:43:50;;;;;;;0.10;0.10;;;;;;;11.34;78.82;98974.28;7365008;19;20029;-61
2024/03/15 05:46:16;;;;;;;0.10;0.10;;;;;;;11.37;78.79;98982.81;7366487;19;20018;-61
2024/03/15 05:48:41;;;;;;;0.10;0.10;;;;;;;11.26;78.68;98976.50;7364714;19;20707;-59
2024/03/15 05:51:07;;;;;;;0.10;0.10;;;;;;;11.36;78.81;98998.59;7364260;19;20073;-61
2024/03/15 05:53:32;;;;;;;0.10;0.10;;;;;;;11.35;78.82;98994.28;7357868;19;20382;-60
2024/03/15 05:55:58;;;;;;;0.10;0.10;;;;;;;11.35;78.90;98989.03;7368177;19;20534;-61
2024/03/15 05:58:23;;;;;;;0.10;0.10;;;;;;;11.34;78.97;99008.25;7363618;19;20025;-62
2024/03/15 06:00:49;;;;;;;0.10;0.10;;;;;;;11.34;78.67;99000.44;7366913;19;20024;-61
2024/03/15 06:03:16;;;;;;;0.10;0.10;;;;;;;11.33;78.86;98996.97;7368374;19;20914;-61
2024/03/15 06:05:42;;;;;;;0.10;0.10;;;;;;;11.33;78.78;99027.50;7365346;19;20006;-62
2024/03/15 06:08:10;;;;;;;0.10;0.10;;;;;;;11.25;78.94;99008.75;7365694;19;20031;-62
2024/03/15 06:10:36;;;;;;;0.15;0.15;;;;;;;11.32;78.84;99026.66;7368577;19;20015;-61
2024/03/15 06:13:01;;;;;;;0.10;0.10;;;;;;;11.31;79.36;99032.81;7368866;19;20026;-62
2024/03/15 06:15:26;;;;;;;0.10;0.10;;;;;;;11.33;78.94;99032.72;7362820;19;20351;-61
2024/03/15 06:17:52;;;;;;;0.10;0.10;;;;;;;11.34;79.24;99034.41;7366978;19;20648;-62
2024/03/15 06:20:18;;;;;;;0.10;0.10;;;;;;;11.33;79.18;99032.72;7360758;19;20705;-61
2024/03/15 06:22:44;;;;;;;0.10;0.10;;;;;;;11.33;79.41;99053.63;7368480;19;20038;-59
2024/03/15 06:25:09;;;;;;;0.10;0.10;;;;;;;11.33;79.15;99046.63;7364673;19;20003;-61
2024/03/15 06:27:35;;;;;;;0.10;0.10;;;;;;;11.34;78.82;99052.69;7366639;19;19999;-62
2024/03/15 06:30:03;;;;;;;0.10;0.10;;;;;;;11.33;79.10;99056.25;7367304;19;20025;-61
2024/03/15 06:32:35;;;;;;;;;;;;;;;11.37;78.95;99071.69;7366312;19;20010;-61
2024/03/15 06:35:02;;;;;;;0.10;0.10;;;;;;;11.35;78.66;99067.44;7368280;19;20319;-61
2024/03/15 06:37:27;;;;;;;0.10;0.10;;;;;;;11.34;78.99;99070.97;7367982;19;20015;-60
2024/03/15 06:42:34;;;;;;;0.10;0.10;;;;;;;11.34;79.10;99100.56;7369131;19;20022;-61
2024/03/15 06:45:08;;;;;;;0.10;0.10;;;;;;;11.31;78.71;99081.63;7365033;19;20009;-61
2024/03/15 06:47:34;;;;;;;0.10;0.10;;;;;;;11.32;78.74;99089.38;7367236;19;20030;-61
2024/03/15 06:50:30;;;;;;;0.10;0.10;;;;;;;11.31;78.80;99095.53;7366735;19;20639;-61
2024/03/15 06:52:54;;;;;;;0.10;0.10;;;;;;;11.32;79.03;99106.81;7367811;19;20003;-61
2024/03/15 06:55:19;;;;;;;0.10;0.10;;;;;;;11.32;79.18;99109.44;7366312;19;20470;-61
2024/03/15 06:57:48;;;;;;;0.10;0.10;;;;;;;11.31;79.08;99119.03;7362949;19;20736;-61
2024/03/15 07:00:14;;;;;;;0.03;0.03;;;;;;;11.31;79.10;99118.19;7367538;19;20002;-61
2024/03/15 07:02:43;;;;;;;0.10;0.10;;;;;;;11.17;78.88;99098.84;7366203;19;20009;-61
2024/03/15 07:05:16;;;;;;;0.10;0.10;;;;;;;11.29;78.89;99130.47;7364572;19;20023;-61
2024/03/15 07:07:42;;;;;;;0.10;0.10;;;;;;;11.27;78.68;99132.34;7366855;19;20534;-61
2024/03/15 07:10:09;;;;;;;0.10;0.10;;;;;;;11.25;79.28;99135.00;7363317;19;20023;-62
2024/03/15 07:12:38;;;;;;;;;;;;;;;11.30;78.86;99140.00;7365736;19;21673;-61
2024/03/15 07:15:06;;;;;;;0.10;0.10;;;;;;;11.25;79.02;99134.16;7360100;19;19946;-62
2024/03/15 07:17:34;;;;;;;0.10;0.10;;;;;;;11.23;78.49;99156.94;7364417;19;20411;-60
2024/03/15 07:20:00;;;;;;;0.10;0.10;;;;;;;11.18;78.52;99144.94;7365247;19;20442;-61
2024/03/15 07:22:27;;;;;;;0.10;0.10;;;;;;;11.18;79.04;99158.00;7360933;19;20039;-61
2024/03/15 07:24:54;;;;;;;0.10;0.10;;;;;;;11.13;79.33;99162.59;7357991;19;20027;-60
2024/03/15 07:27:20;;;;;;;0.20;0.20;;;;;;;11.16;79.30;99164.22;7360808;19;20003;-61
2024/03/15 07:29:46;;;;;;;0.10;0.10;;;;;;;11.17;79.15;99169.38;7364743;19;20461;-61
2024/03/15 07:32:11;;;;;;;0.10;0.10;;;;;;;11.17;79.42;99178.97;7358226;19;20469;-61
2024/03/15 07:34:37;;;;;;;0.10;0.10;;;;;;;11.17;79.25;99176.38;7362879;19;20057;-60
2024/03/15 07:37:06;;;;;;;0.10;0.10;;;;;;;11.15;79.28;99176.47;7349122;19;20049;-60
2024/03/15 07:39:32;;;;;;;0.10;0.10;;;;;;;11.14;79.21;99176.50;7362581;19;19995;-60
2024/03/15 07:41:59;;;;;;;0.10;0.10;;;;;;;11.03;79.47;99160.53;7363251;19;20018;-61
2024/03/15 07:44:26;;;;;;;0.10;0.10;;;;;;;11.15;79.61;99192.13;7361496;19;20006;-61
2024/03/15 07:46:51;;;;;;;0.10;0.10;;;;;;;11.13;79.68;99187.88;7361015;19;20018;-61
2024/03/15 07:49:18;;;;;;;0.10;0.10;;;;;;;11.13;79.85;99193.94;7365772;19;19994;-61
2024/03/15 07:51:46;;;;;;;0.10;0.10;;;;;;;11.18;79.71;99202.41;7363093;19;20006;-60
2024/03/15 07:54:11;;;;;;;0.10;0.10;;;;;;;11.20;79.62;99210.16;7366326;19;20582;-61
2024/03/15 07:56:37;;;;;;;0.10;0.10;;;;;;;11.21;79.32;99221.50;7364126;19;20002;-61
2024/03/15 07:59:03;;;;;;;0.10;0.10;;;;;;;11.22;79.71;99224.03;7364697;19;20098;-61
2024/03/15 08:01:31;;;;;;;0.10;0.10;;;;;;;11.24;79.66;99221.31;7361915;19;20006;-61
2024/03/15 08:03:56;;;;;;;0.10;0.10;;;;;;;11.25;79.83;99233.47;7366344;19;20013;-61
2024/03/15 08:06:22;;;;;;;0.10;0.10;;;;;;;11.27;79.44;99236.88;7357827;19;19999;-61
2024/03/15 08:08:47;;;;;;;0.10;0.10;;;;;;;11.28;79.81;99238.56;7362824;19;20002;-61
2024/03/15 08:11:12;;;;;;;0.10;0.10;;;;;;;11.29;80.06;99251.53;7364710;19;20009;-60
2024/03/15 08:13:38;;;;;;;0.10;0.10;;;;;;;11.30;79.70;99261.06;7361556;19;20006;-60
2024/03/15 08:16:19;;;;;;;0.10;0.10;;;;;;;11.32;80.12;99255.78;7360582;19;20006;-61
2024/03/15 08:18:48;;;;;;;0.13;0.13;;;;;;;11.35;80.00;99268.69;7356455;19;20002;-60
2024/03/15 08:21:16;;;;;;;0.10;0.10;;;;;;;11.35;80.22;99276.50;7363440;19;20044;-61
2024/03/15 08:23:45;;;;;;;0.00;0.00;;;;;;;11.25;80.03;99264.81;7357425;19;20066;-60
2024/03/15 08:26:14;;;;;;;0.10;0.10;;;;;;;11.38;80.36;99289.44;7360182;19;20018;-61
2024/03/15 08:28:42;;;;;;;0.10;0.10;;;;;;;11.39;79.87;99285.91;7359994;19;20365;-61
2024/03/15 08:31:08;;;;;;;0.10;0.10;;;;;;;11.39;79.91;99298.97;7367917;19;20011;-61
2024/03/15 08:33:34;;;;;;;0.10;0.10;;;;;;;11.41;80.42;99303.22;7363316;19;20023;-60
2024/03/15 08:36:00;;;;;;;0.10;0.10;;;;;;;11.42;80.12;99309.28;7368368;19;20438;-61
2024/03/15 08:38:26;;;;;;;0.10;0.10;;;;;;;11.43;80.37;99324.06;7355751;19;19990;-60
2024/03/15 08:40:52;;;;;;;0.10;0.10;;;;;;;11.44;80.27;99328.34;7358175;19;20006;-59
2024/03/15 08:43:17;;;;;;;0.20;0.20;;;;;;;11.45;80.27;99330.03;7370443;19;20633;-61
2024/03/15 08:45:43;;;;;;;0.13;0.13;;;;;;;11.46;80.03;99330.91;7371871;19;20529;-61
2024/03/15 08:48:08;;;;;;;0.10;0.10;;;;;;;11.46;79.95;99346.59;7369127;19;20002;-60
2024/03/15 08:50:34;;;;;;;0.10;0.10;;;;;;;11.45;79.80;99345.72;7371252;19;20022;-61
2024/03/15 08:52:59;;;;;;;0.10;0.10;;;;;;;11.40;79.88;99350.31;7369721;19;20487;-61
2024/03/15 08:55:25;;;;;;;0.13;0.13;;;;;;;11.30;80.08;99346.44;7371023;19;20362;-60
2024/03/15 08:57:51;;;;;;;0.10;0.10;;;;;;;11.35;79.80;99360.16;7370029;19;20007;-61
2024/03/15 09:00:17;;;;;;;0.10;0.10;;;;;;;11.37;79.63;99361.78;7370097;19;20003;-61
2024/03/15 09:02:43;;;;;;;0.10;0.10;;;;;;;11.35;79.93;99365.38;7365628;19;20118;-61
2024/03/15 09:05:09;;;;;;;0.10;0.10;;;;;;;11.34;80.36;99367.16;7368540;19;20569;-61
2024/03/15 09:07:38;;;;;;;0.20;0.20;;;;;;;11.37;80.11;99379.25;7368478;19;20002;-61
2024/03/15 09:10:07;;;;;;;0.10;0.10;;;;;;;11.39;80.19;99382.63;7370313;19;20014;-60
2024/03/15 09:12:35;;;;;;;0.10;0.10;;;;;;;11.44;80.74;99380.63;7369903;19;20002;-61
2024/03/15 09:15:00;;;;;;;0.13;0.13;;;;;;;11.49;80.17;99394.31;7366799;19;20002;-61
2024/03/15 09:17:26;;;;;;;0.10;0.10;;;;;;;11.57;80.30;99405.28;7370780;19;20468;-61
2024/03/15 09:19:53;;;;;;;0.20;0.20;;;;;;;11.64;80.20;99404.06;7369456;19;20006;-61
2024/03/15 09:22:19;;;;;;;0.10;0.10;;;;;;;11.66;79.81;99410.09;7367933;19;20451;-60
2024/03/15 09:24:45;;;;;;;0.15;0.15;;;;;;;11.72;79.43;99422.00;7369406;19;20002;-61
2024/03/15 09:27:11;;;;;;;0.10;0.10;;;;;;;11.60;79.15;99401.66;7369914;19;20014;-61
2024/03/15 09:29:36;;;;;;;0.10;0.10;;;;;;;11.60;78.92;99407.72;7369507;19;20017;-61
2024/03/15 09:32:02;;;;;;;0.10;0.10;;;;;;;11.73;78.80;99428.09;7366150;19;20392;-61
2024/03/15 09:34:29;;;;;;;0.10;0.10;;;;;;;11.74;78.64;99440.25;7367277;19;20007;-61
2024/03/15 09:36:55;;;;;;;0.10;0.10;;;;;;;11.75;78.95;99452.38;7366315;19;20002;-61
2024/03/15 09:39:22;;;;;;;0.17;0.17;;;;;;;11.69;78.79;99443.06;7365621;19;20019;-60
2024/03/15 09:41:53;;;;;;;0.10;0.10;;;;;;;11.76;78.44;99461.91;7367415;19;20026;-60
2024/03/15 09:44:19;;;;;;;0.10;0.10;;;;;;;11.74;78.30;99466.38;7367365;19;20007;-61
2024/03/15 09:46:45;;;;;;;0.15;0.15;;;;;;;11.61;78.75;99443.44;7365721;19;20001;-60
2024/03/15 09:49:14;;;;;;;0.20;0.20;;;;;;;11.75;78.56;99476.78;7366244;19;20823;-61
2024/03/15 09:51:40;;;;;;;0.10;0.10;;;;;;;11.63;79.00;99448.59;7367825;19;20479;-60
2024/03/15 09:54:08;;;;;;;0.10;0.10;;;;;;;11.80;78.63;99484.41;7367483;19;20010;-61
2024/03/15 09:56:35;;;;;;;0.10;0.10;;;;;;;11.83;78.82;99479.06;7368917;19;20522;-61
2024/03/15 09:59:02;;;;;;;0.10;0.10;;;;;;;11.70;78.32;99466.53;7362359;19;20335;-60
2024/03/15 10:01:30;;;;;;;0.10;0.10;;;;;;;11.88;78.39;99495.41;7368330;19;20628;-61
2024/03/15 10:03:57;;;;;;;0.10;0.10;;;;;;;11.88;78.26;99506.72;7366716;19;20458;-61
2024/03/15 10:06:22;;;;;;;0.17;0.17;;;;;;;11.90;78.48;99509.25;7365423;19;19998;-61
2024/03/15 10:08:48;;;;;;;0.20;0.20;;;;;;;11.92;78.14;99523.97;7364639;19;20022;-61
2024/03/15 10:11:14;;;;;;;0.10;0.10;;;;;;;11.94;78.20;99526.50;7370514;19;20005;-60
2024/03/15 10:13:39;;;;;;;0.10;0.10;;;;;;;11.98;78.27;99535.06;7367129;19;20038;-60
2024/03/15 10:16:08;;;;;;;0.10;0.10;;;;;;;12.05;78.39;99539.06;7366050;19;20002;-61
2024/03/15 10:18:39;;;;;;;0.10;0.10;;;;;;;12.18;78.74;99535.81;7365621;19;20086;-61
2024/03/15 10:21:05;;;;;;;0.10;0.10;;;;;;;12.23;78.11;99526.88;7365293;19;20356;-61
2024/03/15 10:23:30;;;;;;;0.10;0.10;;;;;;;12.40;78.16;99550.47;7363298;19;20012;-60
2024/03/15 10:25:56;;;;;;;0.20;0.20;;;;;;;12.55;77.46;99549.72;7365298;19;20003;-61
2024/03/15 10:28:22;;;;;;;0.20;0.20;;;;;;;12.54;77.36;99548.03;7364332;19;20471;-59
2024/03/15 10:30:47;;;;;;;0.10;0.10;;;;;;;12.70;76.75;99569.91;7367703;19;20202;-61
2024/03/15 10:33:13;;;;;;;0.17;0.17;;;;;;;12.73;75.98;99567.16;7367241;19;20015;-61
2024/03/15 10:35:39;;;;;;;0.10;0.10;;;;;;;12.76;75.54;99575.78;7366386;19;20036;-59
2024/03/15 10:38:05;;;;;;;0.10;0.10;;;;;;;12.78;75.73;99584.41;7367961;19;20006;-60
2024/03/15 10:40:34;;;;;;;0.10;0.10;;;;;;;12.81;75.46;99584.25;7363202;19;20043;-60
2024/03/15 10:43:00;;;;;;;0.10;0.10;;;;;;;12.82;75.67;99584.16;7366707;19;20015;-60
2024/03/15 10:45:27;;;;;;;0.10;0.10;;;;;;;12.86;75.93;99595.34;7367004;19;20781;-61
2024/03/15 10:47:57;;;;;;;0.10;0.10;;;;;;;12.89;75.80;99595.22;7366114;19;20470;-60
2024/03/15 10:50:25;;;;;;;0.10;0.10;;;;;;;12.89;75.60;99611.78;7367416;19;20006;-61
2024/03/15 10:52:53;;;;;;;0.10;0.10;;;;;;;12.90;74.96;99617.84;7362752;19;20761;-61
2024/03/15 10:55:19;;;;;;;0.10;0.10;;;;;;;12.90;75.31;99620.47;7368156;19;20013;-61
2024/03/15 10:57:45;;;;;;;0.13;0.13;;;;;;;12.89;75.37;99621.41;7364038;19;20090;-61
2024/03/15 11:00:17;;;;;;;0.10;0.10;;;;;;;12.91;75.20;99630.88;7366559;19;20043;-60
2024/03/15 11:02:49;;;;;;;0.10;0.10;;;;;;;12.90;75.32;99633.56;7366536;19;20830;-60
2024/03/15 11:05:22;;;;;;;0.10;0.10;;;;;;;12.93;75.18;99644.78;7365946;19;20558;-61
2024/03/15 11:07:49;;;;;;;0.10;0.10;;;;;;;12.96;76.00;99639.34;7364600;19;20689;-61
2024/03/15 11:10:21;;;;;;;0.10;0.10;;;;;;;13.03;76.18;99641.66;7365826;19;20013;-61
2024/03/15 11:12:53;;;;;;;0.10;0.10;;;;;;;13.09;76.37;99644.84;7366970;19;20743;-61
2024/03/15 11:15:20;;;;;;;0.10;0.10;;;;;;;13.17;76.04;99658.41;7365427;19;20062;-61
2024/03/15 11:18:09;;;;;;;0.20;0.20;;;;;;;13.37;76.22;99653.97;7367938;19;20499;-61
2024/03/15 11:20:54;;;;;;;0.10;0.10;;;;;;;13.52;76.12;99658.44;7362204;19;20003;-60
2024/03/15 11:23:22;;;;;;;0.10;0.10;;;;;;;13.59;74.63;99666.84;7366750;19;20011;-61
2024/03/15 11:25:54;;;;;;;0.10;0.10;;;;;;;13.68;74.98;99669.81;7365522;19;20014;-61
2024/03/15 11:28:21;;;;;;;0.10;0.10;;;;;;;13.53;73.65;99654.88;7359910;19;20007;-62
2024/03/15 11:30:47;;;;;;;0.10;0.10;;;;;;;13.71;73.89;99690.66;7363286;19;21120;-61
2024/03/15 11:33:13;;;;;;;0.10;0.10;;;;;;;13.75;73.60;99691.34;7361447;19;20014;-60